sensor_id;sensor_type;location;lat;lon;timestamp;temperature;humidity
47805;DHT22;33568;45.286;9.900;2024-01-27T00:02:05;4.40;99.90
47805;DHT22;33568;45.286;9.900;2024-01-27T00:04:32;4.30;99.90
47805;DHT22;33568;45.286;9.900;2024-01-27T00:06:58;4.30;99.90
47805;DHT22;33568;45.286;9.900;2024-01-27T00:09:24;4.30;99.90
47805;DHT22;33568;45.286;9.900;2024-01-27T00:11:51;4.30;99.90
47805;DHT22;33568;45.286;9.900;2024-01-27T00:14:17;4.30;99.90
47805;DHT22;33568;45.286;9.900;2024-01-27T00:16:43;4.30;99.90
47805;DHT22;33568;45.286;9.900;2024-01-27T00:19:10;4.30;99.90
47805;DHT22;33568;45.286;9.900;2024-01-27T00:21:36;4.30;99.90
47805;DHT22;33568;45.286;9.900;2024-01-27T00:24:03;4.30;99.90
47805;DHT22;33568;45.286;9.900;2024-01-27T00:26:29;4.40;99.90
47805;DHT22;33568;45.286;9.900;2024-01-27T00:28:56;4.40;99.90
47805;DHT22;33568;45.286;9.900;2024-01-27T00:31:23;4.40;99.90
47805;DHT22;33568;45.286;9.900;2024-01-27T00:33:49;4.50;99.90
47805;DHT22;33568;45.286;9.900;2024-01-27T00:36:15;4.50;99.90
47805;DHT22;33568;45.286;9.900;2024-01-27T00:38:42;4.50;99.90
47805;DHT22;33568;45.286;9.900;2024-01-27T00:41:08;4.50;99.90
47805;DHT22;33568;45.286;9.900;2024-01-27T00:43:38;4.50;99.90
47805;DHT22;33568;45.286;9.900;2024-01-27T00:46:05;4.50;99.90
47805;DHT22;33568;45.286;9.900;2024-01-27T00:48:31;4.40;99.90
47805;DHT22;33568;45.286;9.900;2024-01-27T00:50:58;4.30;99.90
47805;DHT22;33568;45.286;9.900;2024-01-27T00:53:24;4.30;99.90
47805;DHT22;33568;45.286;9.900;2024-01-27T00:55:50;4.30;99.90
47805;DHT22;33568;45.286;9.900;2024-01-27T00:58:17;4.20;99.90
47805;DHT22;33568;45.286;9.900;2024-01-27T01:00:43;4.10;99.90
47805;DHT22;33568;45.286;9.900;2024-01-27T01:03:09;4.10;99.90
47805;DHT22;33568;45.286;9.900;2024-01-27T01:05:36;4.20;99.90
47805;DHT22;33568;45.286;9.900;2024-01-27T01:08:03;4.20;99.90
47805;DHT22;33568;45.286;9.900;2024-01-27T01:10:29;4.20;99.90
47805;DHT22;33568;45.286;9.900;2024-01-27T01:12:55;4.20;99.90
47805;DHT22;33568;45.286;9.900;2024-01-27T01:15:22;4.20;99.90
47805;DHT22;33568;45.286;9.900;2024-01-27T01:17:48;4.20;99.90
47805;DHT22;33568;45.286;9.900;2024-01-27T01:20:15;4.20;99.90
47805;DHT22;33568;45.286;9.900;2024-01-27T01:22:41;4.30;99.90
47805;DHT22;33568;45.286;9.900;2024-01-27T01:25:08;4.30;99.90
47805;DHT22;33568;45.286;9.900;2024-01-27T01:27:34;4.30;99.90
47805;DHT22;33568;45.286;9.900;2024-01-27T01:30:00;4.20;99.90
47805;DHT22;33568;45.286;9.900;2024-01-27T01:32:27;4.20;99.90
47805;DHT22;33568;45.286;9.900;2024-01-27T01:34:53;4.10;99.90
47805;DHT22;33568;45.286;9.900;2024-01-27T01:37:20;4.10;99.90
47805;DHT22;33568;45.286;9.900;2024-01-27T01:39:46;4.00;99.90
47805;DHT22;33568;45.286;9.900;2024-01-27T01:42:12;4.00;99.90
47805;DHT22;33568;45.286;9.900;2024-01-27T01:44:39;4.00;99.90
47805;DHT22;33568;45.286;9.900;2024-01-27T01:47:05;3.90;99.90
47805;DHT22;33568;45.286;9.900;2024-01-27T01:49:34;3.90;99.90
47805;DHT22;33568;45.286;9.900;2024-01-27T01:52:01;3.80;99.90
47805;DHT22;33568;45.286;9.900;2024-01-27T01:54:28;3.90;99.90
47805;DHT22;33568;45.286;9.900;2024-01-27T01:56:57;3.90;99.90
47805;DHT22;33568;45.286;9.900;2024-01-27T01:59:24;3.90;99.90
47805;DHT22;33568;45.286;9.900;2024-01-27T02:01:51;3.90;99.90
47805;DHT22;33568;45.286;9.900;2024-01-27T02:04:17;3.90;99.90
47805;DHT22;33568;45.286;9.900;2024-01-27T02:06:43;3.90;99.90
47805;DHT22;33568;45.286;9.900;2024-01-27T02:09:10;3.90;99.90
47805;DHT22;33568;45.286;9.900;2024-01-27T02:11:36;3.90;99.90
47805;DHT22;33568;45.286;9.900;2024-01-27T02:14:03;3.90;99.90
47805;DHT22;33568;45.286;9.900;2024-01-27T02:16:30;3.90;99.90
47805;DHT22;33568;45.286;9.900;2024-01-27T02:18:56;3.90;99.90
47805;DHT22;33568;45.286;9.900;2024-01-27T02:21:23;3.90;99.90
47805;DHT22;33568;45.286;9.900;2024-01-27T02:23:49;4.00;99.90
47805;DHT22;33568;45.286;9.900;2024-01-27T02:26:15;4.00;99.90
47805;DHT22;33568;45.286;9.900;2024-01-27T02:28:42;4.00;99.90
47805;DHT22;33568;45.286;9.900;2024-01-27T02:31:08;4.00;99.90
47805;DHT22;33568;45.286;9.900;2024-01-27T02:33:34;3.90;99.90
47805;DHT22;33568;45.286;9.900;2024-01-27T02:36:01;3.90;99.90
47805;DHT22;33568;45.286;9.900;2024-01-27T02:38:27;3.90;99.90
47805;DHT22;33568;45.286;9.900;2024-01-27T02:40:53;3.90;99.90
47805;DHT22;33568;45.286;9.900;2024-01-27T02:43:20;3.90;99.90
47805;DHT22;33568;45.286;9.900;2024-01-27T02:45:46;3.90;99.90
47805;DHT22;33568;45.286;9.900;2024-01-27T02:48:13;3.90;99.90
47805;DHT22;33568;45.286;9.900;2024-01-27T02:50:39;3.80;99.90
47805;DHT22;33568;45.286;9.900;2024-01-27T02:53:05;3.90;99.90
47805;DHT22;33568;45.286;9.900;2024-01-27T02:55:32;3.90;99.90
47805;DHT22;33568;45.286;9.900;2024-01-27T02:57:58;3.90;99.90
47805;DHT22;33568;45.286;9.900;2024-01-27T03:00:24;3.90;99.90
47805;DHT22;33568;45.286;9.900;2024-01-27T03:02:51;3.90;99.90
47805;DHT22;33568;45.286;9.900;2024-01-27T03:05:17;3.90;99.90
47805;DHT22;33568;45.286;9.900;2024-01-27T03:07:44;3.90;99.90
47805;DHT22;33568;45.286;9.900;2024-01-27T03:10:10;3.90;99.90
47805;DHT22;33568;45.286;9.900;2024-01-27T03:12:37;3.90;99.90
47805;DHT22;33568;45.286;9.900;2024-01-27T03:15:04;3.90;99.90
47805;DHT22;33568;45.286;9.900;2024-01-27T03:17:30;3.80;99.90
47805;DHT22;33568;45.286;9.900;2024-01-27T03:19:57;3.90;99.90
47805;DHT22;33568;45.286;9.900;2024-01-27T03:22:23;3.80;99.90
47805;DHT22;33568;45.286;9.900;2024-01-27T03:24:49;3.80;99.90
47805;DHT22;33568;45.286;9.900;2024-01-27T03:27:17;3.80;99.90
47805;DHT22;33568;45.286;9.900;2024-01-27T03:29:44;3.80;99.90
47805;DHT22;33568;45.286;9.900;2024-01-27T03:32:10;3.80;99.90
47805;DHT22;33568;45.286;9.900;2024-01-27T03:34:43;3.80;99.90
47805;DHT22;33568;45.286;9.900;2024-01-27T03:37:10;3.80;99.90
47805;DHT22;33568;45.286;9.900;2024-01-27T03:39:36;3.80;99.90
47805;DHT22;33568;45.286;9.900;2024-01-27T03:42:03;3.70;99.90
47805;DHT22;33568;45.286;9.900;2024-01-27T03:44:30;3.80;99.90
47805;DHT22;33568;45.286;9.900;2024-01-27T03:46:56;3.80;99.90
47805;DHT22;33568;45.286;9.900;2024-01-27T03:49:22;3.80;99.90
47805;DHT22;33568;45.286;9.900;2024-01-27T03:51:49;3.70;99.90
47805;DHT22;33568;45.286;9.900;2024-01-27T03:54:15;3.80;99.90
47805;DHT22;33568;45.286;9.900;2024-01-27T03:56:42;3.80;99.90
47805;DHT22;33568;45.286;9.900;2024-01-27T03:59:08;3.90;99.90
47805;DHT22;33568;45.286;9.900;2024-01-27T04:01:37;3.90;99.90
47805;DHT22;33568;45.286;9.900;2024-01-27T04:04:03;3.90;99.90
47805;DHT22;33568;45.286;9.900;2024-01-27T04:06:36;3.90;99.90
47805;DHT22;33568;45.286;9.900;2024-01-27T04:09:03;3.80;99.90
47805;DHT22;33568;45.286;9.900;2024-01-27T04:11:29;3.70;99.90
47805;DHT22;33568;45.286;9.900;2024-01-27T04:13:56;3.70;99.90
47805;DHT22;33568;45.286;9.900;2024-01-27T04:16:23;3.70;99.90
47805;DHT22;33568;45.286;9.900;2024-01-27T04:18:49;3.60;99.90
47805;DHT22;33568;45.286;9.900;2024-01-27T04:21:15;3.60;99.90
47805;DHT22;33568;45.286;9.900;2024-01-27T04:23:42;3.50;99.90
47805;DHT22;33568;45.286;9.900;2024-01-27T04:26:08;3.50;99.90
47805;DHT22;33568;45.286;9.900;2024-01-27T04:28:36;3.60;99.90
47805;DHT22;33568;45.286;9.900;2024-01-27T04:31:03;3.60;99.90
47805;DHT22;33568;45.286;9.900;2024-01-27T04:33:29;3.60;99.90
47805;DHT22;33568;45.286;9.900;2024-01-27T04:35:55;3.60;99.90
47805;DHT22;33568;45.286;9.900;2024-01-27T04:38:22;3.50;99.90
47805;DHT22;33568;45.286;9.900;2024-01-27T04:40:49;3.50;99.90
47805;DHT22;33568;45.286;9.900;2024-01-27T04:43:16;3.50;99.90
47805;DHT22;33568;45.286;9.900;2024-01-27T04:45:43;3.50;99.90
47805;DHT22;33568;45.286;9.900;2024-01-27T04:48:10;3.50;99.90
47805;DHT22;33568;45.286;9.900;2024-01-27T04:50:36;3.50;99.90
47805;DHT22;33568;45.286;9.900;2024-01-27T04:53:03;3.50;99.90
47805;DHT22;33568;45.286;9.900;2024-01-27T04:55:29;3.50;99.90
47805;DHT22;33568;45.286;9.900;2024-01-27T04:57:55;3.40;99.90
47805;DHT22;33568;45.286;9.900;2024-01-27T05:00:22;3.40;99.90
47805;DHT22;33568;45.286;9.900;2024-01-27T05:02:49;3.40;99.90
47805;DHT22;33568;45.286;9.900;2024-01-27T05:05:15;3.40;99.90
47805;DHT22;33568;45.286;9.900;2024-01-27T05:07:41;3.30;99.90
47805;DHT22;33568;45.286;9.900;2024-01-27T05:10:10;3.40;99.90
47805;DHT22;33568;45.286;9.900;2024-01-27T05:12:38;3.40;99.90
47805;DHT22;33568;45.286;9.900;2024-01-27T05:15:04;3.30;99.90
47805;DHT22;33568;45.286;9.900;2024-01-27T05:17:31;3.30;99.90
47805;DHT22;33568;45.286;9.900;2024-01-27T05:19:58;3.30;99.90
47805;DHT22;33568;45.286;9.900;2024-01-27T05:22:24;3.30;99.90
47805;DHT22;33568;45.286;9.900;2024-01-27T05:24:51;3.30;99.90
47805;DHT22;33568;45.286;9.900;2024-01-27T05:27:17;3.30;99.90
47805;DHT22;33568;45.286;9.900;2024-01-27T05:29:43;3.30;99.90
47805;DHT22;33568;45.286;9.900;2024-01-27T05:32:10;3.30;99.90
47805;DHT22;33568;45.286;9.900;2024-01-27T05:34:36;3.40;99.90
47805;DHT22;33568;45.286;9.900;2024-01-27T05:37:03;3.50;99.90
47805;DHT22;33568;45.286;9.900;2024-01-27T05:39:29;3.40;99.90
47805;DHT22;33568;45.286;9.900;2024-01-27T05:41:55;3.40;99.90
47805;DHT22;33568;45.286;9.900;2024-01-27T05:44:22;3.50;99.90
47805;DHT22;33568;45.286;9.900;2024-01-27T05:46:48;3.50;99.90
47805;DHT22;33568;45.286;9.900;2024-01-27T05:49:15;3.50;99.90
47805;DHT22;33568;45.286;9.900;2024-01-27T05:51:41;3.50;99.90
47805;DHT22;33568;45.286;9.900;2024-01-27T05:54:07;3.40;99.90
47805;DHT22;33568;45.286;9.900;2024-01-27T05:56:34;3.40;99.90
47805;DHT22;33568;45.286;9.900;2024-01-27T05:59:02;3.40;99.90
47805;DHT22;33568;45.286;9.900;2024-01-27T06:01:29;3.40;99.90
47805;DHT22;33568;45.286;9.900;2024-01-27T06:03:55;3.40;99.90
47805;DHT22;33568;45.286;9.900;2024-01-27T06:06:22;3.40;99.90
47805;DHT22;33568;45.286;9.900;2024-01-27T06:08:48;3.30;99.90
47805;DHT22;33568;45.286;9.900;2024-01-27T06:11:22;3.30;99.90
47805;DHT22;33568;45.286;9.900;2024-01-27T06:13:49;3.40;99.90
47805;DHT22;33568;45.286;9.900;2024-01-27T06:16:17;3.40;99.90
47805;DHT22;33568;45.286;9.900;2024-01-27T06:18:45;3.40;99.90
47805;DHT22;33568;45.286;9.900;2024-01-27T06:21:11;3.40;99.90
47805;DHT22;33568;45.286;9.900;2024-01-27T06:23:38;3.40;99.90
47805;DHT22;33568;45.286;9.900;2024-01-27T06:26:08;3.40;99.90
47805;DHT22;33568;45.286;9.900;2024-01-27T06:28:35;3.30;99.90
47805;DHT22;33568;45.286;9.900;2024-01-27T06:31:03;3.30;99.90
47805;DHT22;33568;45.286;9.900;2024-01-27T06:33:30;3.40;99.90
47805;DHT22;33568;45.286;9.900;2024-01-27T06:35:57;3.40;99.90
47805;DHT22;33568;45.286;9.900;2024-01-27T06:38:24;3.50;99.90
47805;DHT22;33568;45.286;9.900;2024-01-27T06:40:50;3.50;99.90
47805;DHT22;33568;45.286;9.900;2024-01-27T06:43:17;3.50;99.90
47805;DHT22;33568;45.286;9.900;2024-01-27T06:45:43;3.50;99.90
47805;DHT22;33568;45.286;9.900;2024-01-27T06:48:09;3.50;99.90
47805;DHT22;33568;45.286;9.900;2024-01-27T06:50:36;3.50;99.90
47805;DHT22;33568;45.286;9.900;2024-01-27T06:53:02;3.50;99.90
47805;DHT22;33568;45.286;9.900;2024-01-27T06:55:29;3.50;99.90
47805;DHT22;33568;45.286;9.900;2024-01-27T06:57:55;3.40;99.90
47805;DHT22;33568;45.286;9.900;2024-01-27T07:00:22;3.40;99.90
47805;DHT22;33568;45.286;9.900;2024-01-27T07:02:48;3.30;99.90
47805;DHT22;33568;45.286;9.900;2024-01-27T07:05:15;3.30;99.90
47805;DHT22;33568;45.286;9.900;2024-01-27T07:07:41;3.30;99.90
47805;DHT22;33568;45.286;9.900;2024-01-27T07:10:08;3.20;99.90
47805;DHT22;33568;45.286;9.900;2024-01-27T07:12:35;3.10;99.90
47805;DHT22;33568;45.286;9.900;2024-01-27T07:15:01;3.10;99.90
47805;DHT22;33568;45.286;9.900;2024-01-27T07:17:30;3.10;99.90
47805;DHT22;33568;45.286;9.900;2024-01-27T07:19:56;3.10;99.90
47805;DHT22;33568;45.286;9.900;2024-01-27T07:22:23;3.20;99.90
47805;DHT22;33568;45.286;9.900;2024-01-27T07:24:50;3.10;99.90
47805;DHT22;33568;45.286;9.900;2024-01-27T07:27:17;3.20;99.90
47805;DHT22;33568;45.286;9.900;2024-01-27T07:29:44;3.20;99.90
47805;DHT22;33568;45.286;9.900;2024-01-27T07:32:11;3.20;99.90
47805;DHT22;33568;45.286;9.900;2024-01-27T07:34:43;3.20;99.90
47805;DHT22;33568;45.286;9.900;2024-01-27T07:37:10;3.30;99.90
47805;DHT22;33568;45.286;9.900;2024-01-27T07:39:36;3.30;99.90
47805;DHT22;33568;45.286;9.900;2024-01-27T07:42:03;3.30;99.90
47805;DHT22;33568;45.286;9.900;2024-01-27T07:44:29;3.30;99.90
47805;DHT22;33568;45.286;9.900;2024-01-27T07:46:55;3.30;99.90
47805;DHT22;33568;45.286;9.900;2024-01-27T07:49:22;3.40;99.90
47805;DHT22;33568;45.286;9.900;2024-01-27T07:51:48;3.50;99.90
47805;DHT22;33568;45.286;9.900;2024-01-27T07:54:15;3.50;99.90
47805;DHT22;33568;45.286;9.900;2024-01-27T07:56:41;3.60;99.90
47805;DHT22;33568;45.286;9.900;2024-01-27T07:59:08;3.60;99.90
47805;DHT22;33568;45.286;9.900;2024-01-27T08:01:40;3.60;99.90
47805;DHT22;33568;45.286;9.900;2024-01-27T08:04:07;3.70;99.90
47805;DHT22;33568;45.286;9.900;2024-01-27T08:06:33;3.70;99.90
47805;DHT22;33568;45.286;9.900;2024-01-27T08:09:00;3.80;99.90
47805;DHT22;33568;45.286;9.900;2024-01-27T08:11:26;3.80;99.90
47805;DHT22;33568;45.286;9.900;2024-01-27T08:13:52;3.90;99.90
47805;DHT22;33568;45.286;9.900;2024-01-27T08:16:20;3.80;99.90
47805;DHT22;33568;45.286;9.900;2024-01-27T08:18:46;3.80;99.90
47805;DHT22;33568;45.286;9.900;2024-01-27T08:21:12;3.90;99.90
47805;DHT22;33568;45.286;9.900;2024-01-27T08:23:39;3.80;99.90
47805;DHT22;33568;45.286;9.900;2024-01-27T08:26:05;3.80;99.90
47805;DHT22;33568;45.286;9.900;2024-01-27T08:28:32;3.80;99.90
47805;DHT22;33568;45.286;9.900;2024-01-27T08:30:58;3.80;99.90
47805;DHT22;33568;45.286;9.900;2024-01-27T08:33:26;3.90;99.90
47805;DHT22;33568;45.286;9.900;2024-01-27T08:35:52;3.90;99.90
47805;DHT22;33568;45.286;9.900;2024-01-27T08:38:18;3.90;99.90
47805;DHT22;33568;45.286;9.900;2024-01-27T08:40:45;4.00;99.90
47805;DHT22;33568;45.286;9.900;2024-01-27T08:43:11;4.10;99.90
47805;DHT22;33568;45.286;9.900;2024-01-27T08:45:37;4.20;99.90
47805;DHT22;33568;45.286;9.900;2024-01-27T08:48:05;4.30;99.90
47805;DHT22;33568;45.286;9.900;2024-01-27T08:50:32;4.30;99.90
47805;DHT22;33568;45.286;9.900;2024-01-27T08:52:58;4.30;99.90
47805;DHT22;33568;45.286;9.900;2024-01-27T08:55:25;4.40;99.90
47805;DHT22;33568;45.286;9.900;2024-01-27T08:57:51;4.50;99.90
47805;DHT22;33568;45.286;9.900;2024-01-27T09:00:19;4.60;99.90
47805;DHT22;33568;45.286;9.900;2024-01-27T09:02:46;4.70;99.90
47805;DHT22;33568;45.286;9.900;2024-01-27T09:05:13;4.80;99.90
47805;DHT22;33568;45.286;9.900;2024-01-27T09:07:40;4.90;99.90
47805;DHT22;33568;45.286;9.900;2024-01-27T09:10:07;5.00;99.90
47805;DHT22;33568;45.286;9.900;2024-01-27T09:12:33;5.00;99.90
47805;DHT22;33568;45.286;9.900;2024-01-27T09:15:00;5.20;99.90
47805;DHT22;33568;45.286;9.900;2024-01-27T09:17:26;5.40;99.90
47805;DHT22;33568;45.286;9.900;2024-01-27T09:19:53;5.40;99.90
47805;DHT22;33568;45.286;9.900;2024-01-27T09:22:19;5.50;99.90
47805;DHT22;33568;45.286;9.900;2024-01-27T09:24:46;5.60;99.90
47805;DHT22;33568;45.286;9.900;2024-01-27T09:27:12;5.70;99.90
47805;DHT22;33568;45.286;9.900;2024-01-27T09:29:41;5.70;99.90
47805;DHT22;33568;45.286;9.900;2024-01-27T09:32:07;5.80;99.90
47805;DHT22;33568;45.286;9.900;2024-01-27T09:34:34;6.00;99.90
47805;DHT22;33568;45.286;9.900;2024-01-27T09:37:01;6.30;99.90
47805;DHT22;33568;45.286;9.900;2024-01-27T09:39:27;6.60;99.90
47805;DHT22;33568;45.286;9.900;2024-01-27T09:41:54;6.90;99.90
47805;DHT22;33568;45.286;9.900;2024-01-27T09:44:22;7.30;99.90
47805;DHT22;33568;45.286;9.900;2024-01-27T09:46:50;7.50;99.90
47805;DHT22;33568;45.286;9.900;2024-01-27T09:49:16;7.80;99.90
47805;DHT22;33568;45.286;9.900;2024-01-27T09:51:43;8.00;99.90
47805;DHT22;33568;45.286;9.900;2024-01-27T09:54:09;8.50;99.90
47805;DHT22;33568;45.286;9.900;2024-01-27T09:56:35;9.00;99.90
47805;DHT22;33568;45.286;9.900;2024-01-27T09:59:02;9.20;99.90
47805;DHT22;33568;45.286;9.900;2024-01-27T10:01:32;9.40;99.90
47805;DHT22;33568;45.286;9.900;2024-01-27T10:03:59;9.60;99.90
47805;DHT22;33568;45.286;9.900;2024-01-27T10:06:26;9.40;99.90
47805;DHT22;33568;45.286;9.900;2024-01-27T10:08:55;9.20;99.90
47805;DHT22;33568;45.286;9.900;2024-01-27T10:11:22;9.20;99.90
47805;DHT22;33568;45.286;9.900;2024-01-27T10:13:56;9.70;99.90
47805;DHT22;33568;45.286;9.900;2024-01-27T10:16:24;10.80;99.90
47805;DHT22;33568;45.286;9.900;2024-01-27T10:19:00;12.10;99.90
47805;DHT22;33568;45.286;9.900;2024-01-27T10:21:27;12.70;99.50
47805;DHT22;33568;45.286;9.900;2024-01-27T10:23:53;12.50;99.70
47805;DHT22;33568;45.286;9.900;2024-01-27T10:26:20;12.70;99.20
47805;DHT22;33568;45.286;9.900;2024-01-27T10:28:52;14.00;99.30
47805;DHT22;33568;45.286;9.900;2024-01-27T10:31:19;15.30;91.60
47805;DHT22;33568;45.286;9.900;2024-01-27T10:33:54;16.10;95.60
47805;DHT22;33568;45.286;9.900;2024-01-27T10:36:20;16.90;93.90
47805;DHT22;33568;45.286;9.900;2024-01-27T10:38:47;17.80;92.80
47805;DHT22;33568;45.286;9.900;2024-01-27T10:41:14;18.70;90.60
47805;DHT22;33568;45.286;9.900;2024-01-27T10:43:47;19.70;78.90
47805;DHT22;33568;45.286;9.900;2024-01-27T10:46:17;20.70;84.30
47805;DHT22;33568;45.286;9.900;2024-01-27T10:48:50;21.30;79.40
47805;DHT22;33568;45.286;9.900;2024-01-27T10:51:31;22.00;75.90
47805;DHT22;33568;45.286;9.900;2024-01-27T10:54:02;23.00;71.60
47805;DHT22;33568;45.286;9.900;2024-01-27T10:56:31;23.70;67.70
47805;DHT22;33568;45.286;9.900;2024-01-27T10:58:58;24.20;65.80
47805;DHT22;33568;45.286;9.900;2024-01-27T11:01:26;24.90;63.60
47805;DHT22;33568;45.286;9.900;2024-01-27T11:03:55;25.20;61.20
47805;DHT22;33568;45.286;9.900;2024-01-27T11:06:22;25.60;60.00
47805;DHT22;33568;45.286;9.900;2024-01-27T11:08:49;25.60;58.30
47805;DHT22;33568;45.286;9.900;2024-01-27T11:11:17;26.10;57.30
47805;DHT22;33568;45.286;9.900;2024-01-27T11:13:44;26.90;55.90
47805;DHT22;33568;45.286;9.900;2024-01-27T11:16:18;27.40;54.10
47805;DHT22;33568;45.286;9.900;2024-01-27T11:18:45;27.30;52.30
47805;DHT22;33568;45.286;9.900;2024-01-27T11:21:16;27.00;52.20
47805;DHT22;33568;45.286;9.900;2024-01-27T11:23:43;27.00;51.40
47805;DHT22;33568;45.286;9.900;2024-01-27T11:26:16;27.20;51.20
47805;DHT22;33568;45.286;9.900;2024-01-27T11:28:43;27.50;50.50
47805;DHT22;33568;45.286;9.900;2024-01-27T11:31:09;27.60;49.80
47805;DHT22;33568;45.286;9.900;2024-01-27T11:33:44;27.50;49.50
47805;DHT22;33568;45.286;9.900;2024-01-27T11:36:19;27.90;48.10
47805;DHT22;33568;45.286;9.900;2024-01-27T11:38:47;28.20;47.60
47805;DHT22;33568;45.286;9.900;2024-01-27T11:41:26;28.60;48.40
47805;DHT22;33568;45.286;9.900;2024-01-27T11:43:57;28.90;46.30
47805;DHT22;33568;45.286;9.900;2024-01-27T11:46:23;29.20;46.90
47805;DHT22;33568;45.286;9.900;2024-01-27T11:48:51;29.30;46.70
47805;DHT22;33568;45.286;9.900;2024-01-27T11:51:18;29.00;46.50
47805;DHT22;33568;45.286;9.900;2024-01-27T11:53:49;29.10;46.70
47805;DHT22;33568;45.286;9.900;2024-01-27T11:56:15;29.60;46.50
47805;DHT22;33568;45.286;9.900;2024-01-27T11:58:49;29.60;45.80
47805;DHT22;33568;45.286;9.900;2024-01-27T12:01:16;29.90;44.50
47805;DHT22;33568;45.286;9.900;2024-01-27T12:03:42;30.50;45.40
47805;DHT22;33568;45.286;9.900;2024-01-27T12:06:09;30.90;44.60
47805;DHT22;33568;45.286;9.900;2024-01-27T12:08:36;30.80;44.30
47805;DHT22;33568;45.286;9.900;2024-01-27T12:11:02;31.00;44.20
47805;DHT22;33568;45.286;9.900;2024-01-27T12:13:29;31.40;44.00
47805;DHT22;33568;45.286;9.900;2024-01-27T12:15:56;31.60;43.50
47805;DHT22;33568;45.286;9.900;2024-01-27T12:18:23;30.90;43.60
47805;DHT22;33568;45.286;9.900;2024-01-27T12:20:56;30.30;43.80
47805;DHT22;33568;45.286;9.900;2024-01-27T12:23:23;30.10;43.50
47805;DHT22;33568;45.286;9.900;2024-01-27T12:25:54;30.30;44.10
47805;DHT22;33568;45.286;9.900;2024-01-27T12:28:25;30.20;43.70
47805;DHT22;33568;45.286;9.900;2024-01-27T12:30:52;30.60;43.40
47805;DHT22;33568;45.286;9.900;2024-01-27T12:33:19;30.60;43.50
47805;DHT22;33568;45.286;9.900;2024-01-27T12:35:49;30.60;43.20
47805;DHT22;33568;45.286;9.900;2024-01-27T12:38:17;28.10;44.00
47805;DHT22;33568;45.286;9.900;2024-01-27T12:40:44;24.90;47.10
47805;DHT22;33568;45.286;9.900;2024-01-27T12:43:11;21.90;51.10
47805;DHT22;33568;45.286;9.900;2024-01-27T12:45:37;19.70;54.80
47805;DHT22;33568;45.286;9.900;2024-01-27T12:48:04;18.10;58.60
47805;DHT22;33568;45.286;9.900;2024-01-27T12:50:31;17.20;60.60
47805;DHT22;33568;45.286;9.900;2024-01-27T12:52:59;16.40;63.30
47805;DHT22;33568;45.286;9.900;2024-01-27T12:55:26;15.90;65.80
47805;DHT22;33568;45.286;9.900;2024-01-27T12:57:52;15.50;67.90
47805;DHT22;33568;45.286;9.900;2024-01-27T13:00:18;15.00;72.20
47805;DHT22;33568;45.286;9.900;2024-01-27T13:02:45;14.80;71.80
47805;DHT22;33568;45.286;9.900;2024-01-27T13:05:12;14.60;73.80
47805;DHT22;33568;45.286;9.900;2024-01-27T13:07:39;14.50;75.40
47805;DHT22;33568;45.286;9.900;2024-01-27T13:10:05;14.30;77.50
47805;DHT22;33568;45.286;9.900;2024-01-27T13:12:32;14.00;83.80
47805;DHT22;33568;45.286;9.900;2024-01-27T13:14:58;13.90;80.70
47805;DHT22;33568;45.286;9.900;2024-01-27T13:17:25;13.80;87.00
47805;DHT22;33568;45.286;9.900;2024-01-27T13:19:51;13.80;83.10
47805;DHT22;33568;45.286;9.900;2024-01-27T13:22:18;13.70;84.60
47805;DHT22;33568;45.286;9.900;2024-01-27T13:24:46;13.60;86.00
47805;DHT22;33568;45.286;9.900;2024-01-27T13:27:12;13.70;87.20
47805;DHT22;33568;45.286;9.900;2024-01-27T13:29:38;13.60;90.60
47805;DHT22;33568;45.286;9.900;2024-01-27T13:32:05;13.50;88.50
47805;DHT22;33568;45.286;9.900;2024-01-27T13:34:31;13.50;89.50
47805;DHT22;33568;45.286;9.900;2024-01-27T13:36:58;13.40;92.10
47805;DHT22;33568;45.286;9.900;2024-01-27T13:39:27;13.40;90.50
47805;DHT22;33568;45.286;9.900;2024-01-27T13:41:54;13.40;90.90
47805;DHT22;33568;45.286;9.900;2024-01-27T13:44:20;13.40;91.20
47805;DHT22;33568;45.286;9.900;2024-01-27T13:46:46;13.30;93.70
47805;DHT22;33568;45.286;9.900;2024-01-27T13:49:13;13.40;92.00
47805;DHT22;33568;45.286;9.900;2024-01-27T13:51:40;13.40;92.10
47805;DHT22;33568;45.286;9.900;2024-01-27T13:54:06;13.50;92.30
47805;DHT22;33568;45.286;9.900;2024-01-27T13:56:35;13.60;92.60
47805;DHT22;33568;45.286;9.900;2024-01-27T13:59:02;13.60;92.70
47805;DHT22;33568;45.286;9.900;2024-01-27T14:01:30;13.60;93.00
47805;DHT22;33568;45.286;9.900;2024-01-27T14:03:56;13.60;93.30
47805;DHT22;33568;45.286;9.900;2024-01-27T14:06:23;13.50;94.70
47805;DHT22;33568;45.286;9.900;2024-01-27T14:08:49;13.50;93.70
47805;DHT22;33568;45.286;9.900;2024-01-27T14:11:15;13.50;95.20
47805;DHT22;33568;45.286;9.900;2024-01-27T14:13:42;13.50;94.10
47805;DHT22;33568;45.286;9.900;2024-01-27T14:16:09;13.40;95.90
47805;DHT22;33568;45.286;9.900;2024-01-27T14:18:35;13.40;94.60
47805;DHT22;33568;45.286;9.900;2024-01-27T14:21:02;13.30;96.10
47805;DHT22;33568;45.286;9.900;2024-01-27T14:23:28;13.30;94.90
47805;DHT22;33568;45.286;9.900;2024-01-27T14:25:55;13.30;95.00
47805;DHT22;33568;45.286;9.900;2024-01-27T14:28:22;13.20;96.60
47805;DHT22;33568;45.286;9.900;2024-01-27T14:30:49;13.10;97.10
47805;DHT22;33568;45.286;9.900;2024-01-27T14:33:15;13.10;95.50
47805;DHT22;33568;45.286;9.900;2024-01-27T14:35:47;13.20;95.70
47805;DHT22;33568;45.286;9.900;2024-01-27T14:38:16;13.10;95.80
47805;DHT22;33568;45.286;9.900;2024-01-27T14:40:42;13.10;96.10
47805;DHT22;33568;45.286;9.900;2024-01-27T14:43:09;13.10;97.40
47805;DHT22;33568;45.286;9.900;2024-01-27T14:45:37;13.10;96.40
47805;DHT22;33568;45.286;9.900;2024-01-27T14:48:04;13.10;96.50
47805;DHT22;33568;45.286;9.900;2024-01-27T14:50:30;12.90;97.80
47805;DHT22;33568;45.286;9.900;2024-01-27T14:52:57;12.90;96.70
47805;DHT22;33568;45.286;9.900;2024-01-27T14:55:25;12.90;96.90
47805;DHT22;33568;45.286;9.900;2024-01-27T14:57:52;12.90;97.10
47805;DHT22;33568;45.286;9.900;2024-01-27T15:00:19;12.90;97.30
47805;DHT22;33568;45.286;9.900;2024-01-27T15:02:45;12.90;97.50
47805;DHT22;33568;45.286;9.900;2024-01-27T15:05:11;12.70;98.70
47805;DHT22;33568;45.286;9.900;2024-01-27T15:07:38;12.70;97.90
47805;DHT22;33568;45.286;9.900;2024-01-27T15:10:08;12.60;99.00
47805;DHT22;33568;45.286;9.900;2024-01-27T15:12:35;12.60;98.00
47805;DHT22;33568;45.286;9.900;2024-01-27T15:15:03;12.60;98.20
47805;DHT22;33568;45.286;9.900;2024-01-27T15:17:29;12.50;98.40
47805;DHT22;33568;45.286;9.900;2024-01-27T15:19:56;12.40;98.90
47805;DHT22;33568;45.286;9.900;2024-01-27T15:22:23;12.30;98.90
47805;DHT22;33568;45.286;9.900;2024-01-27T15:24:50;12.30;99.20
47805;DHT22;33568;45.286;9.900;2024-01-27T15:27:17;12.10;99.40
47805;DHT22;33568;45.286;9.900;2024-01-27T15:29:43;12.10;99.50
47805;DHT22;33568;45.286;9.900;2024-01-27T15:32:09;12.00;99.90
47805;DHT22;33568;45.286;9.900;2024-01-27T15:34:36;11.90;99.70
47805;DHT22;33568;45.286;9.900;2024-01-27T15:37:02;11.80;99.80
47805;DHT22;33568;45.286;9.900;2024-01-27T15:39:29;11.80;99.90